createdAt,value
2018-02-24T00:01:43.494Z,1020.29
2018-02-24T00:04:34.202Z,1020.30
2018-02-24T00:07:17.650Z,1020.27
2018-02-24T00:10:03.932Z,1020.28
2018-02-24T00:12:50.143Z,1020.33
2018-02-24T00:15:35.350Z,1020.29
2018-02-24T00:18:21.652Z,1020.40
2018-02-24T00:21:04.858Z,1020.37
2018-02-24T00:23:53.386Z,1020.39
2018-02-24T00:26:39.409Z,1020.42
2018-02-24T00:29:28.020Z,1020.46
2018-02-24T00:32:12.476Z,1020.55
2018-02-24T00:35:00.485Z,1020.51
2018-02-24T00:37:46.273Z,1020.50
2018-02-24T00:40:35.029Z,1020.51
2018-02-24T00:43:21.847Z,1020.48
2018-02-24T00:46:06.300Z,1020.47
2018-02-24T00:48:52.777Z,1020.53
2018-02-24T00:51:38.140Z,1020.47
2018-02-24T00:54:23.230Z,1020.49
2018-02-24T00:57:07.324Z,1020.47
2018-02-24T00:59:57.326Z,1020.52
2018-02-24T01:02:42.416Z,1020.44
2018-02-24T01:05:27.572Z,1020.47
2018-02-24T01:08:15.474Z,1020.42
2018-02-24T01:11:03.582Z,1020.37
2018-02-24T01:13:48.011Z,1020.40
2018-02-24T01:16:38.297Z,1020.36
2018-02-24T01:19:27.978Z,1020.40
2018-02-24T01:22:13.988Z,1020.42
2018-02-24T01:24:57.839Z,1020.47
2018-02-24T01:27:47.802Z,1020.46
2018-02-24T01:30:32.139Z,1020.53
2018-02-24T01:33:17.757Z,1020.54
2018-02-24T01:36:02.175Z,1020.55
2018-02-24T01:38:50.516Z,1020.51
2018-02-24T01:41:40.522Z,1020.59
2018-02-24T01:43:42.612Z,1020.58
2018-02-24T01:46:30.734Z,1020.62
2018-02-24T01:49:16.789Z,1020.63
2018-02-24T01:52:00.998Z,1020.58
2018-02-24T01:54:45.970Z,1020.49
2018-02-24T01:57:32.008Z,1020.52
2018-02-24T02:00:16.780Z,1020.49
2018-02-24T02:03:06.752Z,1020.51
2018-02-24T02:05:51.685Z,1020.45
2018-02-24T02:08:35.952Z,1020.42
2018-02-24T02:11:20.761Z,1020.46
2018-02-24T02:14:04.437Z,1020.50
2018-02-24T02:16:53.466Z,1020.56
2018-02-24T02:19:42.692Z,1020.61
2018-02-24T02:22:32.544Z,1020.53
2018-02-24T02:25:22.604Z,1020.54
2018-02-24T02:28:10.381Z,1020.68
2018-02-24T02:30:55.577Z,1020.66
2018-02-24T02:33:40.774Z,1020.61
2018-02-24T02:36:25.670Z,1020.66
2018-02-24T02:39:10.946Z,1020.66
2018-02-24T02:42:00.952Z,1020.63
2018-02-24T02:44:48.078Z,1020.65
2018-02-24T02:47:32.870Z,1020.68
2018-02-24T02:50:17.898Z,1020.65
2018-02-24T02:53:02.284Z,1020.65
2018-02-24T02:55:47.911Z,1020.65
2018-02-24T02:58:36.782Z,1020.63
2018-02-24T03:01:21.151Z,1020.64
2018-02-24T03:04:06.938Z,1020.63
2018-02-24T03:06:53.016Z,1020.67
2018-02-24T03:09:41.514Z,1020.61
2018-02-24T03:12:24.992Z,1020.66
2018-02-24T03:15:09.514Z,1020.66
2018-02-24T03:17:55.195Z,1020.72
2018-02-24T03:20:40.113Z,1020.69
2018-02-24T03:23:25.002Z,1020.73
2018-02-24T03:26:09.552Z,1020.77
2018-02-24T03:28:11.619Z,1020.83
2018-02-24T03:31:01.522Z,1020.78
2018-02-24T03:33:49.653Z,1020.78
2018-02-24T03:36:33.961Z,1020.83
2018-02-24T03:39:22.957Z,1020.90
2018-02-24T03:42:08.127Z,1020.92
2018-02-24T03:44:53.432Z,1020.97
2018-02-24T03:47:37.670Z,1021.01
2018-02-24T03:50:26.421Z,1021.02
2018-02-24T03:53:13.433Z,1021.00
2018-02-24T03:56:00.502Z,1021.03
2018-02-24T03:58:46.437Z,1021.07
2018-02-24T04:01:31.638Z,1021.16
2018-02-24T04:04:23.419Z,1021.13
2018-02-24T04:07:07.902Z,1021.12
2018-02-24T04:09:54.192Z,1021.15
2018-02-24T04:11:56.368Z,1021.17
2018-02-24T04:14:42.549Z,1021.16
2018-02-24T04:17:28.908Z,1021.20
2018-02-24T04:20:17.605Z,1021.28
2018-02-24T04:23:04.597Z,1021.26
2018-02-24T04:25:49.872Z,1021.30
2018-02-24T04:28:33.785Z,1021.29
2018-02-24T04:31:17.753Z,1021.31
2018-02-24T04:34:02.743Z,1021.36
2018-02-24T04:36:50.962Z,1021.42
2018-02-24T04:39:34.678Z,1021.42
2018-02-24T04:42:22.377Z,1021.49
2018-02-24T04:45:12.837Z,1021.49
2018-02-24T04:47:56.043Z,1021.52
2018-02-24T04:50:42.075Z,1021.53
2018-02-24T04:53:26.142Z,1021.56
2018-02-24T04:56:15.082Z,1021.57
2018-02-24T04:59:00.023Z,1021.62
2018-02-24T05:01:47.778Z,1021.61
2018-02-24T05:04:36.716Z,1021.57
2018-02-24T05:07:21.608Z,1021.61
2018-02-24T05:10:07.198Z,1021.58
2018-02-24T05:12:53.112Z,1021.56
2018-02-24T05:15:37.295Z,1021.61
2018-02-24T05:18:26.261Z,1021.62
2018-02-24T05:21:14.183Z,1021.64
2018-02-24T05:23:59.539Z,1021.69
2018-02-24T05:26:44.812Z,1021.72
2018-02-24T05:29:32.192Z,1021.73
2018-02-24T05:32:17.451Z,1021.76
2018-02-24T05:35:02.080Z,1021.79
2018-02-24T05:37:46.701Z,1021.78
2018-02-24T05:40:34.436Z,1021.78
2018-02-24T05:43:18.858Z,1021.79
2018-02-24T05:46:05.160Z,1021.85
2018-02-24T05:48:49.580Z,1021.89
2018-02-24T05:51:35.076Z,1021.90
2018-02-24T05:54:19.808Z,1021.94
2018-02-24T05:57:08.961Z,1021.90
2018-02-24T05:59:53.109Z,1021.97
2018-02-24T06:02:38.030Z,1021.94
2018-02-24T06:05:25.577Z,1021.98
2018-02-24T06:08:10.429Z,1021.98
2018-02-24T06:10:54.594Z,1022.01
2018-02-24T06:13:40.277Z,1022.02
2018-02-24T06:16:27.119Z,1022.07
2018-02-24T06:19:11.968Z,1022.12
2018-02-24T06:22:02.573Z,1022.08
2018-02-24T06:24:49.067Z,1022.10
2018-02-24T06:27:32.169Z,1022.14
2018-02-24T06:29:37.760Z,1022.17
2018-02-24T06:32:22.487Z,1022.16
2018-02-24T06:34:24.173Z,1022.07
2018-02-24T06:36:25.871Z,1022.15
2018-02-24T06:38:27.702Z,1022.18
2018-02-24T06:40:29.742Z,1022.19
2018-02-24T06:42:31.852Z,1022.20
2018-02-24T06:44:33.966Z,1022.21
2018-02-24T06:46:35.903Z,1022.21
2018-02-24T06:49:18.976Z,1022.22
2018-02-24T06:51:20.777Z,1022.21
2018-02-24T06:54:04.054Z,1022.25
2018-02-24T06:56:06.390Z,1022.29
2018-02-24T06:58:50.158Z,1022.31
2018-02-24T07:00:52.836Z,1022.35
2018-02-24T07:02:54.556Z,1022.39
2018-02-24T07:04:56.751Z,1022.46
2018-02-24T07:07:40.304Z,1022.50
2018-02-24T07:09:43.066Z,1022.52
2018-02-24T07:11:45.122Z,1022.50
2018-02-24T07:13:47.340Z,1022.61
2018-02-24T07:15:49.752Z,1022.67
2018-02-24T07:17:51.779Z,1022.68
2018-02-24T07:20:35.069Z,1022.60
2018-02-24T07:23:17.417Z,1022.65
2018-02-24T07:25:19.510Z,1022.73
2018-02-24T07:28:04.512Z,1022.68
2018-02-24T07:30:48.312Z,1022.73
2018-02-24T07:32:51.150Z,1022.77
2018-02-24T07:35:36.436Z,1022.79
2018-02-24T07:38:20.115Z,1022.78
2018-02-24T07:41:04.866Z,1022.73
2018-02-24T07:43:50.121Z,1022.76
2018-02-24T07:46:34.279Z,1022.75
2018-02-24T07:49:17.821Z,1022.78
2018-02-24T07:52:02.857Z,1022.73
2018-02-24T07:54:46.493Z,1022.74
2018-02-24T07:58:52.036Z,1022.76
2018-02-24T08:00:54.874Z,1022.83
2018-02-24T08:02:57.050Z,1022.73
2018-02-24T08:04:59.417Z,1022.82
2018-02-24T08:07:44.137Z,1022.83
2018-02-24T08:10:28.061Z,1022.94
2018-02-24T08:12:30.918Z,1022.86
2018-02-24T08:14:32.914Z,1022.91
2018-02-24T08:17:57.649Z,1022.91
2018-02-24T08:20:00.376Z,1022.95
2018-02-24T08:22:02.101Z,1022.88
2018-02-24T08:24:45.540Z,1022.91
2018-02-24T08:27:28.953Z,1022.97
2018-02-24T08:30:14.232Z,1023.12
2018-02-24T08:32:15.804Z,1023.13
2018-02-24T08:34:17.983Z,1023.09
2018-02-24T08:36:20.044Z,1023.13
2018-02-24T08:38:21.908Z,1023.16
2018-02-24T08:40:24.260Z,1023.12
2018-02-24T08:42:26.044Z,1023.18
2018-02-24T08:44:27.984Z,1023.15
2018-02-24T08:47:54.203Z,1023.20
2018-02-24T08:49:56.407Z,1023.20
2018-02-24T08:51:58.557Z,1023.20
2018-02-24T08:54:00.366Z,1023.24
2018-02-24T08:56:02.218Z,1023.28
2018-02-24T08:58:04.430Z,1023.18
2018-02-24T09:00:06.330Z,1023.24
2018-02-24T09:02:08.168Z,1023.30
2018-02-24T09:04:10.032Z,1023.26
2018-02-24T09:06:11.784Z,1023.35
2018-02-24T09:08:54.452Z,1023.32
2018-02-24T09:11:37.161Z,1023.31
2018-02-24T09:13:39.573Z,1023.28
2018-02-24T09:15:41.191Z,1023.29
2018-02-24T09:17:42.947Z,1023.26
2018-02-24T09:19:45.247Z,1023.29
2018-02-24T09:21:47.444Z,1023.27
2018-02-24T09:23:49.389Z,1023.21
2018-02-24T09:25:51.313Z,1023.31
2018-02-24T09:27:53.156Z,1023.23
2018-02-24T09:30:35.939Z,1023.43
2018-02-24T09:32:37.521Z,1023.37
2018-02-24T09:34:39.293Z,1023.37
2018-02-24T09:36:40.835Z,1023.42
2018-02-24T09:38:42.466Z,1023.41
2018-02-24T09:40:44.191Z,1023.29
2018-02-24T09:42:46.045Z,1023.35
2018-02-24T09:45:28.068Z,1023.48
2018-02-24T09:48:13.772Z,1023.37
2018-02-24T09:50:58.235Z,1023.38
2018-02-24T09:53:41.434Z,1023.51
2018-02-24T09:56:27.346Z,1023.49
2018-02-24T09:58:28.987Z,1023.47
2018-02-24T10:00:31.327Z,1023.47
2018-02-24T10:03:14.643Z,1023.39
2018-02-24T10:05:16.169Z,1023.43
2018-02-24T10:07:18.379Z,1023.45
2018-02-24T10:10:04.008Z,1023.40
2018-02-24T10:12:05.792Z,1023.40
2018-02-24T10:16:09.194Z,1023.48
2018-02-24T10:18:10.773Z,1023.56
2018-02-24T10:20:12.562Z,1023.36
2018-02-24T10:22:14.291Z,1023.56
2018-02-24T10:24:16.154Z,1023.46
2018-02-24T10:27:39.660Z,1023.34
2018-02-24T10:29:41.388Z,1023.41
2018-02-24T10:31:43.470Z,1023.55
2018-02-24T10:33:44.889Z,1023.48
2018-02-24T10:35:46.373Z,1023.54
2018-02-24T10:37:48.314Z,1023.55
2018-02-24T10:39:50.057Z,1023.60
2018-02-24T10:42:32.577Z,1023.57
2018-02-24T10:44:34.006Z,1023.61
2018-02-24T10:46:35.644Z,1023.73
2018-02-24T10:48:37.102Z,1023.68
2018-02-24T10:50:38.532Z,1023.63
2018-02-24T10:52:40.258Z,1023.64
2018-02-24T10:54:41.687Z,1023.66
2018-02-24T10:56:43.889Z,1023.67
2018-02-24T10:58:46.288Z,1023.67
2018-02-24T11:00:48.479Z,1023.72
2018-02-24T11:07:53.822Z,1023.63
2018-02-24T11:09:55.245Z,1023.58
2018-02-24T11:11:57.348Z,1023.56
2018-02-24T11:13:59.134Z,1023.55
2018-02-24T11:16:01.102Z,1023.58
2018-02-24T11:18:03.259Z,1023.54
2018-02-24T11:20:50.643Z,1023.51
2018-02-24T11:23:33.851Z,1023.42
2018-02-24T11:26:16.294Z,1023.40
2018-02-24T11:28:18.317Z,1023.45
2018-02-24T11:31:42.367Z,1023.41
2018-02-24T11:33:44.219Z,1023.41
2018-02-24T11:35:45.712Z,1023.48
2018-02-24T11:37:47.249Z,1023.42
2018-02-24T11:40:30.530Z,1023.45
2018-02-24T11:42:32.215Z,1023.40
2018-02-24T11:44:33.871Z,1023.40
2018-02-24T11:46:35.542Z,1023.36
2018-02-24T11:48:37.379Z,1023.37
2018-02-24T11:50:39.306Z,1023.32
2018-02-24T11:52:41.060Z,1023.26
2018-02-24T11:54:42.826Z,1023.26
2018-02-24T11:56:44.775Z,1023.25
2018-02-24T11:58:46.800Z,1023.13
2018-02-24T12:00:48.575Z,1023.14
2018-02-24T12:02:50.433Z,1023.15
2018-02-24T12:04:52.581Z,1023.04
2018-02-24T12:06:54.500Z,1023.10
2018-02-24T12:08:56.476Z,1023.07
2018-02-24T12:10:58.274Z,1023.08
2018-02-24T12:13:00.194Z,1023.07
2018-02-24T12:15:01.744Z,1023.12
2018-02-24T12:17:44.455Z,1023.12
2018-02-24T12:19:45.981Z,1023.21
2018-02-24T12:21:47.745Z,1023.13
2018-02-24T12:24:31.263Z,1023.08
2018-02-24T12:26:32.884Z,1022.98
2018-02-24T12:28:34.933Z,1023.15
2018-02-24T12:30:36.540Z,1023.09
2018-02-24T12:32:38.107Z,1023.15
2018-02-24T12:34:39.844Z,1023.13
2018-02-24T12:36:41.723Z,1023.20
2018-02-24T12:38:43.574Z,1023.22
2018-02-24T12:40:45.346Z,1023.14
2018-02-24T12:43:31.821Z,1023.26
2018-02-24T12:46:15.476Z,1023.21
2018-02-24T12:48:20.184Z,1023.17
2018-02-24T12:50:22.255Z,1023.16
2018-02-24T12:52:24.421Z,1023.12
2018-02-24T12:54:26.187Z,1023.18
2018-02-24T12:56:28.149Z,1023.08
2018-02-24T12:59:11.763Z,1023.01
2018-02-24T13:01:14.307Z,1023.16
2018-02-24T13:03:15.735Z,1023.14
2018-02-24T13:05:17.568Z,1023.04
2018-02-24T13:07:19.652Z,1023.05
2018-02-24T13:09:21.552Z,1023.03
2018-02-24T13:11:23.491Z,1023.05
2018-02-24T13:13:25.533Z,1023.14
2018-02-24T13:16:08.177Z,1023.04
2018-02-24T13:18:52.284Z,1023.07
2018-02-24T13:20:54.474Z,1023.09
2018-02-24T13:22:56.818Z,1023.26
2018-02-24T13:24:58.721Z,1023.19
2018-02-24T13:27:00.480Z,1023.25
2018-02-24T13:29:02.364Z,1023.18
2018-02-24T13:31:04.033Z,1023.24
2018-02-24T13:33:06.207Z,1023.24
2018-02-24T13:35:08.648Z,1023.24
2018-02-24T13:37:51.154Z,1023.21
2018-02-24T13:39:52.735Z,1023.18
2018-02-24T13:41:54.800Z,1023.14
2018-02-24T13:43:56.229Z,1023.21
2018-02-24T13:45:57.723Z,1023.10
2018-02-24T13:47:59.500Z,1023.00
2018-02-24T13:50:01.354Z,1023.20
2018-02-24T13:52:03.583Z,1023.19
2018-02-24T13:54:46.709Z,1023.29
2018-02-24T13:56:48.736Z,1023.26
2018-02-24T13:58:51.124Z,1023.24
2018-02-24T14:00:52.634Z,1023.22
2018-02-24T14:02:54.489Z,1023.22
2018-02-24T14:04:56.265Z,1023.18
2018-02-24T14:06:58.107Z,1023.16
2018-02-24T14:08:59.818Z,1023.17
2018-02-24T14:11:01.537Z,1023.20
2018-02-24T14:13:03.614Z,1023.15
2018-02-24T14:15:05.505Z,1023.17
2018-02-24T14:17:49.230Z,1023.15
2018-02-24T14:19:51.366Z,1023.25
2018-02-24T14:21:53.495Z,1023.21
2018-02-24T14:23:55.348Z,1023.27
2018-02-24T14:25:57.227Z,1023.19
2018-02-24T14:27:58.924Z,1023.17
2018-02-24T14:30:00.701Z,1023.14
2018-02-24T14:32:02.472Z,1023.18
2018-02-24T14:34:04.147Z,1023.14
2018-02-24T14:36:05.923Z,1023.20
2018-02-24T14:38:49.018Z,1023.14
2018-02-24T14:40:51.081Z,1023.08
2018-02-24T14:42:52.777Z,1023.14
2018-02-24T14:44:54.598Z,1023.03
2018-02-24T14:46:56.392Z,1023.13
2018-02-24T14:48:58.164Z,1023.10
2018-02-24T14:51:00.259Z,1022.94
2018-02-24T14:53:02.035Z,1022.98
2018-02-24T14:55:03.998Z,1023.02
2018-02-24T14:57:05.740Z,1023.00
2018-02-24T14:59:07.575Z,1023.10
2018-02-24T15:01:09.890Z,1023.00
2018-02-24T15:03:11.737Z,1022.99
2018-02-24T15:05:13.429Z,1023.00
2018-02-24T15:07:15.337Z,1022.94
2018-02-24T15:09:17.236Z,1022.91
2018-02-24T15:11:19.009Z,1022.84
2018-02-24T15:13:20.859Z,1022.88
2018-02-24T15:15:22.637Z,1022.89
2018-02-24T15:17:24.372Z,1022.88
2018-02-24T15:19:26.083Z,1022.79
2018-02-24T15:21:28.064Z,1022.89
2018-02-24T15:23:30.187Z,1022.93
2018-02-24T15:25:31.854Z,1022.89
2018-02-24T15:27:33.688Z,1022.97
2018-02-24T15:29:35.556Z,1022.92
2018-02-24T15:31:37.300Z,1022.96
2018-02-24T15:33:39.381Z,1022.93
2018-02-24T15:35:41.044Z,1022.92
2018-02-24T15:37:43.062Z,1022.97
2018-02-24T15:39:44.709Z,1022.98
2018-02-24T15:41:46.852Z,1023.00
2018-02-24T15:43:48.950Z,1022.99
2018-02-24T15:45:50.659Z,1022.91
2018-02-24T15:47:52.362Z,1022.83
2018-02-24T15:50:35.759Z,1022.92
2018-02-24T15:52:37.442Z,1022.90
2018-02-24T15:55:20.118Z,1022.87
2018-02-24T15:57:21.560Z,1022.92
2018-02-24T15:59:23.847Z,1022.89
2018-02-24T16:01:25.252Z,1022.86
2018-02-24T16:03:26.795Z,1022.88
2018-02-24T16:05:28.445Z,1022.91
2018-02-24T16:07:30.829Z,1022.83
2018-02-24T16:10:13.527Z,1022.88
2018-02-24T16:12:56.375Z,1022.93
2018-02-24T16:15:38.968Z,1022.83
2018-02-24T16:18:23.344Z,1022.88
2018-02-24T16:20:24.723Z,1022.96
2018-02-24T16:22:26.229Z,1022.93
2018-02-24T16:24:27.922Z,1023.01
2018-02-24T16:26:29.418Z,1022.95
2018-02-24T16:28:30.967Z,1023.08
2018-02-24T16:30:32.756Z,1023.01
2018-02-24T16:32:34.448Z,1023.03
2018-02-24T16:34:36.485Z,1023.01
2018-02-24T16:36:38.287Z,1022.98
2018-02-24T16:39:22.448Z,1022.98
2018-02-24T16:41:23.792Z,1023.03
2018-02-24T16:43:26.025Z,1022.99
2018-02-24T16:45:27.689Z,1023.01
2018-02-24T16:47:29.522Z,1023.01
2018-02-24T16:49:31.402Z,1022.97
2018-02-24T16:51:34.515Z,1023.08
2018-02-24T16:54:16.548Z,1023.10
2018-02-24T16:56:59.342Z,1023.11
2018-02-24T16:59:01.145Z,1023.13
2018-02-24T17:01:04.652Z,1023.16
2018-02-24T17:03:06.635Z,1023.26
2018-02-24T17:05:08.532Z,1023.23
2018-02-24T17:07:10.596Z,1023.28
2018-02-24T17:09:12.577Z,1023.27
2018-02-24T17:11:16.481Z,1023.25
2018-02-24T17:13:18.016Z,1023.27
2018-02-24T17:15:19.748Z,1023.35
2018-02-24T17:18:01.504Z,1023.33
2018-02-24T17:20:04.524Z,1023.45
2018-02-24T17:22:05.885Z,1023.43
2018-02-24T17:24:07.664Z,1023.47
2018-02-24T17:26:09.706Z,1023.58
2018-02-24T17:28:17.380Z,1023.50
2018-02-24T17:30:18.998Z,1023.54
2018-02-24T17:32:20.708Z,1023.53
2018-02-24T17:34:23.673Z,1023.50
2018-02-24T17:36:25.388Z,1023.51
2018-02-24T17:39:07.468Z,1023.57
2018-02-24T17:41:10.685Z,1023.55
2018-02-24T17:43:12.394Z,1023.62
2018-02-24T17:45:14.201Z,1023.53
2018-02-24T17:47:15.854Z,1023.56
2018-02-24T17:50:00.180Z,1023.57
2018-02-24T17:52:02.449Z,1023.59
2018-02-24T17:54:04.102Z,1023.58
2018-02-24T17:56:06.060Z,1023.64
2018-02-24T17:58:07.852Z,1023.64
2018-02-24T18:00:10.132Z,1023.60
2018-02-24T18:02:12.869Z,1023.66
2018-02-24T18:04:15.003Z,1023.63
2018-02-24T18:06:17.187Z,1023.66
2018-02-24T18:08:18.809Z,1023.69
2018-02-24T18:10:21.362Z,1023.64
2018-02-24T18:12:23.097Z,1023.64
2018-02-24T18:14:25.458Z,1023.66
2018-02-24T18:16:27.164Z,1023.69
2018-02-24T18:18:29.390Z,1023.68
2018-02-24T18:20:31.051Z,1023.70
2018-02-24T18:22:33.016Z,1023.72
2018-02-24T18:24:34.652Z,1023.73
2018-02-24T18:26:36.442Z,1023.75
2018-02-24T18:28:38.240Z,1023.83
2018-02-24T18:30:39.937Z,1023.81
2018-02-24T18:32:41.856Z,1023.84
2018-02-24T18:34:43.668Z,1023.83
2018-02-24T18:36:45.469Z,1023.88
2018-02-24T18:38:47.312Z,1023.85
2018-02-24T18:40:49.417Z,1023.90
2018-02-24T18:42:51.170Z,1023.93
2018-02-24T18:44:52.947Z,1023.94
2018-02-24T18:46:54.840Z,1023.96
2018-02-24T18:48:56.566Z,1023.98
2018-02-24T18:50:58.342Z,1023.94
2018-02-24T18:53:00.145Z,1023.99
2018-02-24T18:55:02.537Z,1023.97
2018-02-24T18:57:04.317Z,1024.01
2018-02-24T18:59:06.152Z,1023.97
2018-02-24T19:01:07.897Z,1023.95
2018-02-24T19:03:10.144Z,1024.05
2018-02-24T19:05:12.004Z,1024.00
2018-02-24T19:07:54.562Z,1023.96
2018-02-24T19:09:56.280Z,1024.03
2018-02-24T19:11:57.770Z,1024.04
2018-02-24T19:13:59.377Z,1024.08
2018-02-24T19:16:01.412Z,1024.15
2018-02-24T19:18:03.121Z,1024.10
2018-02-24T19:20:05.209Z,1024.16
2018-02-24T19:22:06.884Z,1024.21
2018-02-24T19:24:08.657Z,1024.19
2018-02-24T19:26:51.349Z,1024.31
2018-02-24T19:28:52.891Z,1024.25
2018-02-24T19:30:54.347Z,1024.30
2018-02-24T19:32:56.806Z,1024.30
2018-02-24T19:34:58.584Z,1024.30
2018-02-24T19:37:00.140Z,1024.32
2018-02-24T19:39:01.907Z,1024.34
2018-02-24T19:41:04.151Z,1024.33
2018-02-24T19:43:06.043Z,1024.31
2018-02-24T19:45:07.667Z,1024.42
2018-02-24T19:47:09.377Z,1024.37
2018-02-24T19:49:11.090Z,1024.45
2018-02-24T19:51:12.986Z,1024.42
2018-02-24T19:53:14.838Z,1024.41
2018-02-24T19:55:16.592Z,1024.42
2018-02-24T19:57:18.516Z,1024.46
2018-02-24T20:00:01.543Z,1024.38
2018-02-24T20:02:03.236Z,1024.36
2018-02-24T20:04:05.498Z,1024.27
2018-02-24T20:06:07.456Z,1024.26
2018-02-24T20:08:10.674Z,1024.31
2018-02-24T20:10:12.953Z,1024.34
2018-02-24T20:12:15.458Z,1024.39
2018-02-24T20:14:16.821Z,1024.39
2018-02-24T20:16:18.767Z,1024.35
2018-02-24T20:19:02.169Z,1024.38
2018-02-24T20:21:05.065Z,1024.31
2018-02-24T20:23:07.045Z,1024.35
2018-02-24T20:25:09.526Z,1024.38
2018-02-24T20:27:12.624Z,1024.33
2018-02-24T20:29:15.801Z,1024.38
2018-02-24T20:31:19.077Z,1024.36
2018-02-24T20:33:20.760Z,1024.42
2018-02-24T20:35:22.924Z,1024.44
2018-02-24T20:38:05.487Z,1024.46
2018-02-24T20:40:07.021Z,1024.45
2018-02-24T20:42:08.927Z,1024.42
2018-02-24T20:44:10.401Z,1024.45
2018-02-24T20:46:12.782Z,1024.51
2018-02-24T20:48:15.723Z,1024.52
2018-02-24T20:50:17.319Z,1024.63
2018-02-24T20:53:00.442Z,1024.55
2018-02-24T20:55:01.945Z,1024.55
2018-02-24T20:57:03.467Z,1024.56
2018-02-24T20:59:05.904Z,1024.58
2018-02-24T21:01:48.600Z,1024.59
2018-02-24T21:03:50.012Z,1024.67
2018-02-24T21:05:51.492Z,1024.60
2018-02-24T21:07:53.049Z,1024.65
2018-02-24T21:09:55.519Z,1024.62
2018-02-24T21:11:56.992Z,1024.63
2018-02-24T21:13:58.594Z,1024.72
2018-02-24T21:16:00.216Z,1024.69
2018-02-24T21:18:02.520Z,1024.71
2018-02-24T21:20:04.152Z,1024.78
2018-02-24T21:22:46.537Z,1024.78
2018-02-24T21:24:47.968Z,1024.78
2018-02-24T21:26:49.538Z,1024.77
2018-02-24T21:28:50.978Z,1024.73
2018-02-24T21:30:52.361Z,1024.72
2018-02-24T21:32:53.792Z,1024.80
2018-02-24T21:34:55.429Z,1024.86
2018-02-24T21:36:57.078Z,1024.83
2018-02-24T21:38:58.718Z,1024.93
2018-02-24T21:41:41.266Z,1024.93
2018-02-24T21:43:42.602Z,1024.94
2018-02-24T21:45:44.255Z,1024.86
2018-02-24T21:47:45.688Z,1024.94
2018-02-24T21:49:47.301Z,1024.95
2018-02-24T21:51:49.091Z,1024.97
2018-02-24T21:53:50.849Z,1024.99
2018-02-24T21:55:52.880Z,1025.01
2018-02-24T21:57:54.513Z,1025.01
2018-02-24T22:00:36.941Z,1025.02
2018-02-24T22:02:38.355Z,1025.03
2018-02-24T22:04:39.785Z,1024.99
2018-02-24T22:06:41.238Z,1024.94
2018-02-24T22:08:42.767Z,1024.94
2018-02-24T22:10:44.372Z,1024.95
2018-02-24T22:12:46.114Z,1024.94
2018-02-24T22:14:47.648Z,1025.00
2018-02-24T22:16:49.477Z,1025.03
2018-02-24T22:18:51.081Z,1025.02
2018-02-24T22:21:33.478Z,1025.09
2018-02-24T22:23:34.934Z,1025.07
2018-02-24T22:25:36.363Z,1025.13
2018-02-24T22:27:37.978Z,1025.12
2018-02-24T22:29:39.443Z,1025.12
2018-02-24T22:31:41.111Z,1025.12
2018-02-24T22:33:42.909Z,1025.17
2018-02-24T22:35:44.608Z,1025.13
2018-02-24T22:37:46.378Z,1025.16
2018-02-24T22:40:29.742Z,1025.18
2018-02-24T22:42:31.505Z,1025.18
2018-02-24T22:44:32.956Z,1025.16
2018-02-24T22:46:34.773Z,1025.15
2018-02-24T22:48:36.542Z,1025.14
2018-02-24T22:50:38.313Z,1025.16
2018-02-24T22:53:20.788Z,1025.18
2018-02-24T22:55:22.542Z,1025.12
2018-02-24T22:58:05.006Z,1025.09
2018-02-24T23:00:06.425Z,1025.10
2018-02-24T23:02:07.921Z,1025.16
2018-02-24T23:04:09.364Z,1025.09
2018-02-24T23:06:11.040Z,1025.16
2018-02-24T23:08:12.555Z,1025.14
2018-02-24T23:10:14.388Z,1025.11
2018-02-24T23:12:57.463Z,1025.17
2018-02-24T23:15:39.810Z,1025.19
2018-02-24T23:17:41.470Z,1025.16
2018-02-24T23:19:42.900Z,1025.20
2018-02-24T23:22:25.311Z,1025.17
2018-02-24T23:24:27.242Z,1025.16
2018-02-24T23:26:29.003Z,1025.18
2018-02-24T23:28:30.447Z,1025.22
2018-02-24T23:30:31.918Z,1025.23
2018-02-24T23:32:33.499Z,1025.23
2018-02-24T23:35:16.574Z,1025.27
2018-02-24T23:37:17.996Z,1025.25
2018-02-24T23:39:19.708Z,1025.27
2018-02-24T23:41:21.260Z,1025.29
2018-02-24T23:43:22.911Z,1025.33
2018-02-24T23:45:24.856Z,1025.34
2018-02-24T23:47:26.522Z,1025.39
2018-02-24T23:49:28.442Z,1025.39
2018-02-24T23:51:30.252Z,1025.42
2018-02-24T23:54:12.641Z,1025.46
2018-02-24T23:56:14.279Z,1025.46
2018-02-24T23:58:15.725Z,1025.50
